createdAt,value
2022-07-30T00:00:30.661Z,99.71
2022-07-30T00:03:33.534Z,99.76
2022-07-30T00:06:37.798Z,99.93
2022-07-30T00:09:39.627Z,99.86
2022-07-30T00:12:41.369Z,99.64
2022-07-30T00:15:42.923Z,99.66
2022-07-30T00:18:44.437Z,99.46
2022-07-30T00:21:46.466Z,99.74
2022-07-30T00:24:48.062Z,99.21
2022-07-30T00:27:49.633Z,98.99
2022-07-30T00:30:52.748Z,99.26
2022-07-30T00:33:57.898Z,99.70
2022-07-30T00:36:59.733Z,99.43
2022-07-30T00:40:01.543Z,99.29
2022-07-30T00:43:03.855Z,99.60
2022-07-30T00:46:05.454Z,99.05
2022-07-30T00:49:07.248Z,99.41
2022-07-30T00:52:11.544Z,99.35
2022-07-30T00:55:15.080Z,99.62
2022-07-30T00:58:16.681Z,99.24
2022-07-30T01:01:18.655Z,99.26
2022-07-30T01:04:20.998Z,99.41
2022-07-30T01:07:27.095Z,99.06
2022-07-30T01:10:29.059Z,98.85
2022-07-30T01:13:30.700Z,98.77
2022-07-30T01:16:33.377Z,98.64
2022-07-30T01:19:48.491Z,99.11
2022-07-30T01:22:49.991Z,99.34
2022-07-30T01:25:56.055Z,98.67
2022-07-30T01:29:00.742Z,99.13
2022-07-30T01:32:04.685Z,99.65
2022-07-30T01:35:09.104Z,99.08
2022-07-30T01:38:13.124Z,99.46
2022-07-30T01:41:16.438Z,99.19
2022-07-30T01:44:24.027Z,99.58
2022-07-30T01:47:27.937Z,98.96
2022-07-30T01:50:32.471Z,99.04
2022-07-30T01:53:38.741Z,99.43
2022-07-30T01:56:42.506Z,99.44
2022-07-30T01:59:48.537Z,99.69
2022-07-30T02:02:50.516Z,99.52
2022-07-30T02:06:09.330Z,100.00
2022-07-30T02:09:15.562Z,100.00
2022-07-30T02:12:28.736Z,100.00
2022-07-30T02:15:41.614Z,100.00
2022-07-30T02:18:57.026Z,100.00
2022-07-30T02:22:05.506Z,100.00
2022-07-30T02:25:13.517Z,100.00
2022-07-30T02:28:18.465Z,100.00
2022-07-30T02:31:25.029Z,100.00
2022-07-30T02:34:32.118Z,100.00
2022-07-30T02:37:41.497Z,100.00
2022-07-30T02:40:46.825Z,100.00
2022-07-30T02:43:51.110Z,100.00
2022-07-30T02:46:55.992Z,100.00
2022-07-30T02:50:19.938Z,100.00
2022-07-30T02:53:23.709Z,100.00
2022-07-30T02:56:26.461Z,100.00
2022-07-30T02:59:32.225Z,100.00
2022-07-30T03:02:39.335Z,100.00
2022-07-30T03:05:41.871Z,100.00
2022-07-30T03:08:45.275Z,100.00
2022-07-30T03:11:49.403Z,100.00
2022-07-30T03:14:51.831Z,100.00
2022-07-30T03:17:55.555Z,100.00
2022-07-30T03:20:59.677Z,100.00
2022-07-30T03:24:03.419Z,100.00
2022-07-30T03:27:08.141Z,100.00
2022-07-30T03:30:10.697Z,100.00
2022-07-30T03:33:13.035Z,100.00
2022-07-30T03:36:17.966Z,100.00
2022-07-30T03:39:20.731Z,100.00
2022-07-30T03:42:23.019Z,100.00
2022-07-30T03:45:25.111Z,100.00
2022-07-30T03:48:34.443Z,100.00
2022-07-30T03:51:37.665Z,100.00
2022-07-30T03:54:41.229Z,100.00
2022-07-30T03:58:01.947Z,100.00
2022-07-30T04:01:05.395Z,100.00
2022-07-30T04:04:11.058Z,100.00
2022-07-30T04:07:14.816Z,100.00
2022-07-30T04:10:17.017Z,100.00
2022-07-30T04:13:44.861Z,100.00
2022-07-30T04:17:02.437Z,100.00
2022-07-30T04:20:16.480Z,100.00
2022-07-30T04:23:20.181Z,100.00
2022-07-30T04:26:22.822Z,100.00
2022-07-30T04:29:25.020Z,100.00
2022-07-30T04:32:28.614Z,100.00
2022-07-30T04:35:56.991Z,100.00
2022-07-30T04:39:06.985Z,100.00
2022-07-30T04:42:08.568Z,100.00
2022-07-30T04:45:12.340Z,100.00
2022-07-30T04:48:31.385Z,100.00
2022-07-30T04:51:45.701Z,100.00
2022-07-30T04:54:56.842Z,99.24
2022-07-30T04:58:00.154Z,98.83
2022-07-30T05:01:05.947Z,98.95
2022-07-30T05:04:09.102Z,97.03
2022-07-30T05:07:13.936Z,96.50
2022-07-30T05:10:15.635Z,96.52
2022-07-30T05:13:17.814Z,95.98
2022-07-30T05:16:19.432Z,95.81
2022-07-30T05:19:23.745Z,95.31
2022-07-30T05:22:27.602Z,94.99
2022-07-30T05:25:29.862Z,95.12
2022-07-30T05:28:42.240Z,94.89
2022-07-30T05:31:48.868Z,94.36
2022-07-30T05:34:51.302Z,94.39
2022-07-30T05:37:53.323Z,93.96
2022-07-30T05:40:55.018Z,93.66
2022-07-30T05:44:19.690Z,93.38
2022-07-30T05:47:24.074Z,92.95
2022-07-30T05:50:26.424Z,92.95
2022-07-30T05:53:29.157Z,93.27
2022-07-30T05:56:46.088Z,92.94
2022-07-30T05:59:50.422Z,92.25
2022-07-30T06:03:17.873Z,91.83
2022-07-30T06:06:40.642Z,91.30
2022-07-30T06:09:42.421Z,91.81
2022-07-30T06:12:46.628Z,90.48
2022-07-30T06:15:49.564Z,89.84
2022-07-30T06:18:51.412Z,88.20
2022-07-30T06:22:06.609Z,88.04
2022-07-30T06:25:14.048Z,87.96
2022-07-30T06:28:37.203Z,87.14
2022-07-30T06:31:44.474Z,87.34
2022-07-30T06:34:47.333Z,85.71
2022-07-30T06:38:06.200Z,85.70
2022-07-30T06:41:17.188Z,84.93
2022-07-30T06:44:31.882Z,84.98
2022-07-30T06:48:01.620Z,84.20
2022-07-30T06:51:06.601Z,83.89
2022-07-30T06:54:09.122Z,83.90
2022-07-30T06:57:10.609Z,82.54
2022-07-30T07:00:12.516Z,82.95
2022-07-30T07:03:16.859Z,83.10
2022-07-30T07:06:19.448Z,82.92
2022-07-30T07:09:20.987Z,82.26
2022-07-30T07:12:33.302Z,82.05
2022-07-30T07:15:36.986Z,81.64
2022-07-30T07:18:41.127Z,80.76
2022-07-30T07:21:42.684Z,80.55
2022-07-30T07:24:44.450Z,80.25
2022-07-30T07:28:11.758Z,79.47
2022-07-30T07:32:05.004Z,78.47
2022-07-30T07:34:34.676Z,77.41
2022-07-30T07:37:36.311Z,76.93
2022-07-30T07:40:39.481Z,77.41
2022-07-30T07:43:41.468Z,76.94
2022-07-30T07:46:47.465Z,76.92
2022-07-30T07:49:49.349Z,76.82
2022-07-30T07:52:50.894Z,75.75
2022-07-30T07:55:52.713Z,75.15
2022-07-30T07:58:57.654Z,74.66
2022-07-30T08:02:00.595Z,74.41
2022-07-30T08:05:25.036Z,73.41
2022-07-30T08:09:14.152Z,72.09
2022-07-30T08:12:38.589Z,71.69
2022-07-30T08:16:00.104Z,71.46
2022-07-30T08:19:27.597Z,71.22
2022-07-30T08:22:42.729Z,70.67
2022-07-30T08:25:44.817Z,69.24
2022-07-30T08:28:46.430Z,67.81
2022-07-30T08:31:48.300Z,68.17
2022-07-30T08:34:50.177Z,65.69
2022-07-30T08:37:51.804Z,66.04
2022-07-30T08:40:56.451Z,64.53
2022-07-30T08:44:00.847Z,64.11
2022-07-30T08:47:04.539Z,64.59
2022-07-30T08:50:26.986Z,64.73
2022-07-30T08:53:47.626Z,63.60
2022-07-30T08:56:50.074Z,63.12
2022-07-30T08:59:59.907Z,63.28
2022-07-30T09:03:03.346Z,61.72
2022-07-30T09:06:06.228Z,61.06
2022-07-30T09:09:09.203Z,61.65
2022-07-30T09:12:33.938Z,59.67
2022-07-30T09:15:38.804Z,58.51
2022-07-30T09:18:44.524Z,58.50
2022-07-30T09:21:58.213Z,59.03
2022-07-30T09:25:39.556Z,56.34
2022-07-30T09:29:21.596Z,57.65
2022-07-30T09:32:50.632Z,56.70
2022-07-30T09:36:17.990Z,55.81
2022-07-30T09:39:43.079Z,53.91
2022-07-30T09:43:27.651Z,53.08
2022-07-30T09:46:47.994Z,50.97
2022-07-30T09:50:07.258Z,48.18
2022-07-30T09:53:15.717Z,50.61
2022-07-30T09:56:31.145Z,48.83
2022-07-30T09:59:35.397Z,48.41
2022-07-30T10:02:39.667Z,49.26
2022-07-30T10:06:06.315Z,47.37
2022-07-30T10:09:32.265Z,47.55
2022-07-30T10:12:35.009Z,48.07
2022-07-30T10:15:47.682Z,47.34
2022-07-30T10:18:55.210Z,47.20
2022-07-30T10:22:20.353Z,46.86
2022-07-30T10:25:35.205Z,47.47
2022-07-30T10:29:01.885Z,46.02
2022-07-30T10:32:06.811Z,44.99
2022-07-30T10:35:12.248Z,44.92
2022-07-30T10:38:39.518Z,45.27
2022-07-30T10:42:05.407Z,44.15
2022-07-30T10:45:20.102Z,43.91
2022-07-30T10:48:25.059Z,44.11
2022-07-30T10:51:52.454Z,42.97
2022-07-30T10:54:54.403Z,42.77
2022-07-30T10:58:08.278Z,40.52
2022-07-30T11:01:18.264Z,40.82
2022-07-30T11:04:26.923Z,40.39
2022-07-30T11:07:34.382Z,41.54
2022-07-30T11:10:40.277Z,41.84
2022-07-30T11:13:55.915Z,40.84
2022-07-30T11:17:01.540Z,41.86
2022-07-30T11:20:06.864Z,40.60
2022-07-30T11:23:19.845Z,40.56
2022-07-30T11:26:40.951Z,39.92
2022-07-30T11:29:50.772Z,40.45
2022-07-30T11:32:59.416Z,40.72
2022-07-30T11:36:11.821Z,40.66
2022-07-30T11:39:13.702Z,39.38
2022-07-30T11:42:36.103Z,39.24
2022-07-30T11:45:38.048Z,39.23
2022-07-30T11:48:42.268Z,39.84
2022-07-30T11:51:48.889Z,38.86
2022-07-30T11:54:55.140Z,38.63
2022-07-30T11:57:58.173Z,38.69
2022-07-30T12:01:09.292Z,38.16
2022-07-30T12:04:12.219Z,38.32
2022-07-30T12:07:13.793Z,38.42
2022-07-30T12:10:17.603Z,37.57
2022-07-30T12:13:45.832Z,37.58
2022-07-30T12:16:52.837Z,38.39
2022-07-30T12:19:54.399Z,37.89
2022-07-30T12:22:56.984Z,37.27
2022-07-30T12:25:59.298Z,35.81
2022-07-30T12:29:05.034Z,36.31
2022-07-30T12:32:07.189Z,36.04
2022-07-30T12:35:09.418Z,36.75
2022-07-30T12:38:11.241Z,36.36
2022-07-30T12:41:12.868Z,36.12
2022-07-30T12:44:40.693Z,35.02
2022-07-30T12:47:42.254Z,34.30
2022-07-30T12:50:44.747Z,34.69
2022-07-30T12:53:47.533Z,34.99
2022-07-30T12:57:03.306Z,35.14
2022-07-30T13:00:07.822Z,35.11
2022-07-30T13:03:29.666Z,35.47
2022-07-30T13:06:31.307Z,35.53
2022-07-30T13:09:33.001Z,35.22
2022-07-30T13:12:34.713Z,34.23
2022-07-30T13:15:36.252Z,34.65
2022-07-30T13:18:38.968Z,34.89
2022-07-30T13:21:50.208Z,34.68
2022-07-30T13:29:19.653Z,33.86
2022-07-30T13:32:21.285Z,33.95
2022-07-30T13:35:22.790Z,34.81
2022-07-30T13:38:24.351Z,35.03
2022-07-30T13:41:25.975Z,35.10
2022-07-30T13:44:27.503Z,34.44
2022-07-30T13:47:29.268Z,34.47
2022-07-30T13:50:31.010Z,34.70
2022-07-30T13:53:33.129Z,34.62
2022-07-30T13:56:35.045Z,33.11
2022-07-30T13:59:42.691Z,34.26
2022-07-30T14:02:44.203Z,33.95
2022-07-30T14:05:45.811Z,33.32
2022-07-30T14:08:47.395Z,32.71
2022-07-30T14:11:48.945Z,31.70
2022-07-30T14:14:50.516Z,31.83
2022-07-30T14:17:56.461Z,31.39
2022-07-30T14:20:58.413Z,31.79
2022-07-30T14:23:59.981Z,30.98
2022-07-30T14:27:01.915Z,31.19
2022-07-30T14:30:06.176Z,29.58
2022-07-30T14:33:08.270Z,29.77
2022-07-30T14:36:10.196Z,29.57
2022-07-30T14:39:11.688Z,30.29
2022-07-30T14:42:13.208Z,30.03
2022-07-30T14:45:14.909Z,29.37
2022-07-30T14:48:17.426Z,29.22
2022-07-30T14:51:25.538Z,30.23
2022-07-30T14:54:28.035Z,29.99
2022-07-30T14:57:29.581Z,30.01
2022-07-30T15:00:35.590Z,29.81
2022-07-30T15:03:50.629Z,29.40
2022-07-30T15:06:52.351Z,29.45
2022-07-30T15:09:53.945Z,29.41
2022-07-30T15:12:55.571Z,28.63
2022-07-30T15:15:57.279Z,28.01
2022-07-30T15:18:58.848Z,27.76
2022-07-30T15:22:02.515Z,28.13
2022-07-30T15:25:09.121Z,28.09
2022-07-30T15:28:10.789Z,27.83
2022-07-30T15:31:12.459Z,27.54
2022-07-30T15:34:14.439Z,27.51
2022-07-30T15:37:16.175Z,27.51
2022-07-30T15:40:18.898Z,28.00
2022-07-30T15:43:20.584Z,27.62
2022-07-30T15:46:22.201Z,28.45
2022-07-30T15:49:24.041Z,27.92
2022-07-30T15:52:25.839Z,27.96
2022-07-30T15:55:27.502Z,27.82
2022-07-30T15:58:30.121Z,27.54
2022-07-30T16:01:33.159Z,27.36
2022-07-30T16:04:34.773Z,27.18
2022-07-30T16:07:36.328Z,27.08
2022-07-30T16:10:38.093Z,27.44
2022-07-30T16:13:39.707Z,27.49
2022-07-30T16:16:41.529Z,27.99
2022-07-30T16:19:44.747Z,28.47
2022-07-30T16:22:47.456Z,28.61
2022-07-30T16:25:49.010Z,28.51
2022-07-30T16:28:50.770Z,28.55
2022-07-30T16:31:52.807Z,28.55
2022-07-30T16:34:54.378Z,28.39
2022-07-30T16:37:57.902Z,28.43
2022-07-30T16:40:59.768Z,28.81
2022-07-30T16:44:01.634Z,28.94
2022-07-30T16:47:03.149Z,29.31
2022-07-30T16:50:05.238Z,29.46
2022-07-30T16:53:13.162Z,29.79
2022-07-30T16:56:16.394Z,30.01
2022-07-30T16:59:21.041Z,30.28
2022-07-30T17:02:22.639Z,30.33
2022-07-30T17:05:24.365Z,30.69
2022-07-30T17:08:26.221Z,31.02
2022-07-30T17:11:47.091Z,31.04
2022-07-30T17:14:49.553Z,30.96
2022-07-30T17:17:51.767Z,31.07
2022-07-30T17:20:53.663Z,31.02
2022-07-30T17:23:55.226Z,31.08
2022-07-30T17:26:57.393Z,31.32
2022-07-30T17:30:02.833Z,31.48
2022-07-30T17:33:06.257Z,31.54
2022-07-30T17:36:08.503Z,31.45
2022-07-30T17:39:10.099Z,31.69
2022-07-30T17:42:31.634Z,32.72
2022-07-30T17:45:35.325Z,34.50
2022-07-30T17:48:36.986Z,35.51
2022-07-30T17:51:39.651Z,36.28
2022-07-30T17:54:41.564Z,36.70
2022-07-30T17:57:43.126Z,36.93
2022-07-30T18:00:44.751Z,37.25
2022-07-30T18:03:46.281Z,38.24
2022-07-30T18:06:49.204Z,39.07
2022-07-30T18:09:51.008Z,39.58
2022-07-30T18:12:52.737Z,40.35
2022-07-30T18:15:54.619Z,41.67
2022-07-30T18:18:56.196Z,41.93
2022-07-30T18:21:57.737Z,41.46
2022-07-30T18:25:07.698Z,41.51
2022-07-30T18:28:09.371Z,41.64
2022-07-30T18:31:13.401Z,41.35
2022-07-30T18:34:15.125Z,41.28
2022-07-30T18:37:16.649Z,40.40
2022-07-30T18:40:23.692Z,40.26
2022-07-30T18:43:27.674Z,41.36
2022-07-30T18:46:29.261Z,41.51
2022-07-30T18:49:38.348Z,41.72
2022-07-30T18:52:40.708Z,41.65
2022-07-30T18:55:42.607Z,42.39
2022-07-30T18:58:44.161Z,43.48
2022-07-30T19:01:45.708Z,43.75
2022-07-30T19:04:47.260Z,43.90
2022-07-30T19:07:57.451Z,44.25
2022-07-30T19:11:01.020Z,44.91
2022-07-30T19:14:02.551Z,44.53
2022-07-30T19:17:13.675Z,45.33
2022-07-30T19:20:15.939Z,46.01
2022-07-30T19:23:18.557Z,46.60
2022-07-30T19:26:20.124Z,46.75
2022-07-30T19:29:21.666Z,47.17
2022-07-30T19:32:24.312Z,48.07
2022-07-30T19:35:25.945Z,47.83
2022-07-30T19:38:27.802Z,48.55
2022-07-30T19:41:30.137Z,49.41
2022-07-30T19:44:31.698Z,49.92
2022-07-30T19:47:39.434Z,50.83
2022-07-30T19:50:41.756Z,51.12
2022-07-30T19:53:44.613Z,51.38
2022-07-30T19:56:47.157Z,52.19
2022-07-30T20:00:00.098Z,52.09
2022-07-30T20:03:14.482Z,52.41
2022-07-30T20:06:18.374Z,52.69
2022-07-30T20:09:19.963Z,53.97
2022-07-30T20:12:24.348Z,54.58
2022-07-30T20:15:26.817Z,55.10
2022-07-30T20:18:32.127Z,54.82
2022-07-30T20:21:56.501Z,54.95
2022-07-30T20:24:56.741Z,54.88
2022-07-30T20:27:58.397Z,55.17
2022-07-30T20:31:00.613Z,55.39
2022-07-30T20:34:02.201Z,55.80
2022-07-30T20:37:15.007Z,56.32
2022-07-30T20:40:26.345Z,56.56
2022-07-30T20:43:28.770Z,57.48
2022-07-30T20:46:31.937Z,57.59
2022-07-30T20:49:35.760Z,58.25
2022-07-30T20:52:40.484Z,58.24
2022-07-30T20:55:42.421Z,58.66
2022-07-30T20:58:46.038Z,59.09
2022-07-30T21:01:49.175Z,59.73
2022-07-30T21:04:54.759Z,60.19
2022-07-30T21:07:59.492Z,60.62
2022-07-30T21:11:03.162Z,61.21
2022-07-30T21:14:04.768Z,61.52
2022-07-30T21:17:10.309Z,61.70
2022-07-30T21:20:12.323Z,62.19
2022-07-30T21:23:22.117Z,62.70
2022-07-30T21:26:23.943Z,63.52
2022-07-30T21:29:27.541Z,63.58
2022-07-30T21:32:29.153Z,64.62
2022-07-30T21:35:32.177Z,64.39
2022-07-30T21:38:37.136Z,64.96
2022-07-30T21:41:40.947Z,65.43
2022-07-30T21:44:42.570Z,65.67
2022-07-30T21:47:47.973Z,65.37
2022-07-30T21:50:49.771Z,64.91
2022-07-30T21:53:51.282Z,65.48
2022-07-30T21:56:53.366Z,65.77
2022-07-30T21:59:58.161Z,65.87
2022-07-30T22:02:59.651Z,65.50
2022-07-30T22:06:02.080Z,65.30
2022-07-30T22:12:29.018Z,66.23
2022-07-30T22:15:32.908Z,66.97
2022-07-30T22:18:34.412Z,67.22
2022-07-30T22:21:36.049Z,67.39
2022-07-30T22:24:38.477Z,68.10
2022-07-30T22:27:55.732Z,68.58
2022-07-30T22:30:58.550Z,69.07
2022-07-30T22:34:00.097Z,68.99
2022-07-30T22:37:02.086Z,69.40
2022-07-30T22:40:06.680Z,69.80
2022-07-30T22:43:12.482Z,70.46
2022-07-30T22:46:30.037Z,70.84
2022-07-30T22:49:50.325Z,71.29
2022-07-30T22:52:57.466Z,71.56
2022-07-30T22:56:01.678Z,72.28
2022-07-30T22:59:03.217Z,72.58
2022-07-30T23:02:06.935Z,72.67
2022-07-30T23:05:15.498Z,73.17
2022-07-30T23:08:17.309Z,73.76
2022-07-30T23:11:37.093Z,74.06
2022-07-30T23:12:28.284Z,65.61
2022-07-30T23:14:39.330Z,74.58
2022-07-30T23:17:40.850Z,75.06
2022-07-30T23:20:42.446Z,74.88
2022-07-30T23:23:44.934Z,75.29
2022-07-30T23:26:48.091Z,75.54
2022-07-30T23:29:52.014Z,76.17
2022-07-30T23:32:53.594Z,76.33
2022-07-30T23:35:55.260Z,76.28
2022-07-30T23:38:56.747Z,76.53
2022-07-30T23:41:59.540Z,77.22
2022-07-30T23:45:01.073Z,77.29
2022-07-30T23:48:03.571Z,77.38
2022-07-30T23:51:05.465Z,78.10
2022-07-30T23:54:06.971Z,78.88
2022-07-30T23:57:08.506Z,78.61
